Hanton Trader Vi — DUHT — position and weather

sailwx.info

Track history (hours):
 
Tides and Currents Weather Stations Pressure Air Temp Water Temp Dewpoint Dewpoint Depression Visibility Wind Speed Wind Dir Waves Ship Positions

Hanton Trader Vi

Last reported at 2018-Apr-12 23:13 UTC. Time now 2018-Apr-23 05:45 UTC.
Position N 01°13' E 103°29'.
Warning: this ship's position is 10 days out of date.

Length 229 m; draft 14.7 m.

Type: Cargo ship. MMSI: 548930000.

Date/timePositionNaut miles runAvg speedWind from/ knotsBaromVisibWave heightAir tempDewpointWater temp
2018-Apr-12 23:13N 01°13' E 103°29'512.6
2018-Apr-12 22:50N 01°12' E 103°34'412.0
2018-Apr-12 22:29N 01°11' E 103°38'612.1
2018-Apr-12 22:00N 01°09' E 103°43'510.1
2018-Apr-12 21:30N 01°10' E 103°48'4 8.4
2018-Apr-12 21:00N 01°12' E 103°52'3 6.7
2018-Apr-12 20:30N 01°14' E 103°55'3 5.9
2018-Apr-12 19:59N 01°16' E 103°57'1 0.1
2018-Apr-12 15:37N 01°17' E 103°57'0 0.0
2018-Apr-12 14:34N 01°17' E 103°57'0 0.0
2018-Apr-12 14:10N 01°17' E 103°57'0 0.0
2018-Apr-12 13:46N 01°17' E 103°57'0 0.0
2018-Apr-12 12:58N 01°17' E 103°57'0 0.0
2018-Apr-12 12:13N 01°17' E 103°57'0 0.0
2018-Apr-12 11:43N 01°16' E 103°57'0 0.1
2018-Apr-12 11:28N 01°17' E 103°57'0 0.0
2018-Apr-12 09:58N 01°17' E 103°57'0 0.1
2018-Apr-12 09:29N 01°17' E 103°57'2 3.0
2018-Apr-12 08:58N 01°16' E 103°58'4 7.0
2018-Apr-12 08:27N 01°16' E 104°02'  
Track history (hours):
 
Tides and Currents Weather Stations Pressure Air Temp Water Temp Dewpoint Dewpoint Depression Visibility Wind Speed Wind Dir Waves Ship Positions

Hanton Trader Vi

Last reported at 2018-Apr-12 23:13 UTC. Time now 2018-Apr-23 05:45 UTC.
Position N 01°13' E 103°29'.
Warning: this ship's position is 10 days out of date.

Length 229 m; draft 14.7 m.

Type: Cargo ship. MMSI: 548930000.

Date/timePositionNaut miles runAvg speedWind from/ knotsBaromVisibWave heightAir tempDewpointWater temp
2018-Apr-12 23:13N 01°13' E 103°29'512.6
2018-Apr-12 22:50N 01°12' E 103°34'412.0
2018-Apr-12 22:29N 01°11' E 103°38'612.1
2018-Apr-12 22:00N 01°09' E 103°43'510.1
2018-Apr-12 21:30N 01°10' E 103°48'4 8.4
2018-Apr-12 21:00N 01°12' E 103°52'3 6.7
2018-Apr-12 20:30N 01°14' E 103°55'3 5.9
2018-Apr-12 19:59N 01°16' E 103°57'1 0.1
2018-Apr-12 15:37N 01°17' E 103°57'0 0.0
2018-Apr-12 14:34N 01°17' E 103°57'0 0.0
2018-Apr-12 14:10N 01°17' E 103°57'0 0.0
2018-Apr-12 13:46N 01°17' E 103°57'0 0.0
2018-Apr-12 12:58N 01°17' E 103°57'0 0.0
2018-Apr-12 12:13N 01°17' E 103°57'0 0.0
2018-Apr-12 11:43N 01°16' E 103°57'0 0.1
2018-Apr-12 11:28N 01°17' E 103°57'0 0.0
2018-Apr-12 09:58N 01°17' E 103°57'0 0.1
2018-Apr-12 09:29N 01°17' E 103°57'2 3.0
2018-Apr-12 08:58N 01°16' E 103°58'4 7.0
2018-Apr-12 08:27N 01°16' E 104°02'  

Dump ship's entire track history